Time;durP1;ratioP1;P1;durP2;ratioP2;P2;SDS_P1;SDS_P2;PMS_P1;PMS_P2;Temp;Humidity;BMP_temperature;BMP_pressure;BME280_temperature;BME280_humidity;BME280_pressure;Samples;Min_cycle;Max_cycle;Signal;HPM_P1;HPM_P2
2022/07/31 00:01:01;;;;;;;;;;;;;;;;;;4966225;28;19961;-78
2022/07/31 00:03:27;;;;;;;;;;;;;;;;;;4964461;29;19915;-79
2022/07/31 00:05:52;;;;;;;;;;;;;;;;;;4963612;28;19973;-77
2022/07/31 00:08:17;;;;;;;;;;;;;;;;;;4961639;28;19914;-78
2022/07/31 00:10:43;;;;;;;;;;;;;;;;;;4955371;29;19919;-78
2022/07/31 00:13:08;;;;;;;;;;;;;;;;;;4955140;28;19917;-78
2022/07/31 00:15:33;;;;;;;;;;;;;;;;;;4956598;29;19922;-79
2022/07/31 00:17:59;;;;;;;;;;;;;;;;;;4956480;28;19966;-78
2022/07/31 00:20:24;;;;;;;;;;;;;;;;;;4956450;28;19918;-78
2022/07/31 00:22:50;;;;;;;;;;;;;;;;;;4956048;28;19915;-78
2022/07/31 00:25:15;;;;;;;;;;;;;;;;;;4956151;28;19915;-78
2022/07/31 00:27:40;;;;;;;;;;;;;;;;;;4956235;28;19916;-77
2022/07/31 00:30:06;;;;;;;;;;;;;;;;;;4955475;28;20002;-78
2022/07/31 00:32:31;;;;;;;;;;;;;;;;;;4938768;29;19961;-78
2022/07/31 00:34:56;;;;;;;;;;;;;;;;;;4954924;29;19915;-77
2022/07/31 00:37:22;;;;;;;;;;;;;;;;;;4955988;28;19914;-77
2022/07/31 00:39:48;;;;;;;;;;;;;;;;;;4956020;28;20009;-78
2022/07/31 00:42:13;;;;;;;;;;;;;;;;;;4955873;28;19914;-78
2022/07/31 00:44:39;;;;;;;;;;;;;;;;;;4954621;29;19914;-77
2022/07/31 00:47:06;;;;;;;;;;;;;;;;;;4953790;29;19925;-77
2022/07/31 00:49:31;;;;;;;;;;;;;;;;;;4954672;29;19919;-78
2022/07/31 00:51:57;;;;;;;;;;;;;;;;;;4955840;29;19927;-77
2022/07/31 00:54:22;;;;;;;;;;;;;;;;;;4938127;29;20007;-77
2022/07/31 00:56:47;;;;;;;;;;;;;;;;;;4953446;28;19910;-78
2022/07/31 00:59:13;;;;;;;;;;;;;;;;;;4938198;29;19969;-77
2022/07/31 01:01:38;;;;;;;;;;;;;;;;;;4955503;29;19915;-78
2022/07/31 01:04:04;;;;;;;;;;;;;;;;;;4949157;28;20389;-78
2022/07/31 01:06:29;;;;;;;;;;;;;;;;;;4938422;29;19911;-78
2022/07/31 01:08:54;;;;;;;;;;;;;;;;;;4954153;29;20394;-77
2022/07/31 01:11:20;;;;;;;;;;;;;;;;;;4954156;29;20401;-78
2022/07/31 01:13:45;;;;;;;;;;;;;;;;;;4953780;29;19918;-79
2022/07/31 01:16:11;;;;;;;;;;;;;;;;;;4954215;29;19964;-78
2022/07/31 01:18:37;;;;;;;;;;;;;;;;;;4954067;29;19918;-77
2022/07/31 01:21:02;;;;;;;;;;;;;;;;;;4953179;29;20025;-77
2022/07/31 01:23:27;;;;;;;;;;;;;;;;;;4954773;28;19911;-78
2022/07/31 01:26:23;;;;;;;;;;;;;;;;;;4942027;29;19970;-77
2022/07/31 01:29:00;;;;;;;;;;;;;;;;;;4953920;29;20009;-78
2022/07/31 01:31:26;;;;;;;;;;;;;;;;;;4953956;29;20360;-78
2022/07/31 01:33:51;;;;;;;;;;;;;;;;;;4953727;29;19917;-78
2022/07/31 01:36:16;;;;;;;;;;;;;;;;;;4952951;29;20302;-77
2022/07/31 01:38:42;;;;;;;;;;;;;;;;;;4954935;28;19965;-78
2022/07/31 01:41:07;;;;;;;;;;;;;;;;;;4953703;29;19915;-78
2022/07/31 01:43:32;;;;;;;;;;;;;;;;;;4953540;29;19922;-78
2022/07/31 01:45:59;;;;;;;;;;;;;;;;;;4953639;29;19921;-78
2022/07/31 01:48:25;;;;;;;;;;;;;;;;;;4937490;29;19918;-76
2022/07/31 01:50:50;;;;;;;;;;;;;;;;;;4953509;29;19914;-77
2022/07/31 01:53:17;;;;;;;;;;;;;;;;;;4937178;29;19914;-77
2022/07/31 01:55:43;;;;;;;;;;;;;;;;;;4952354;29;19922;-78
2022/07/31 01:58:08;;;;;;;;;;;;;;;;;;4937330;29;20006;-77
2022/07/31 02:00:33;;;;;;;;;;;;;;;;;;4953361;29;19920;-77
2022/07/31 02:02:59;;;;;;;;;;;;;;;;;;4952731;29;20437;-77
2022/07/31 02:05:24;;;;;;;;;;;;;;;;;;4954485;29;20382;-77
2022/07/31 02:07:50;;;;;;;;;;;;;;;;;;4953067;28;19914;-78
2022/07/31 02:10:15;;;;;;;;;;;;;;;;;;4953469;29;19941;-78
2022/07/31 02:12:41;;;;;;;;;;;;;;;;;;4948053;29;19919;-78
2022/07/31 02:15:07;;;;;;;;;;;;;;;;;;4954022;29;19925;-78
2022/07/31 02:17:32;;;;;;;;;;;;;;;;;;4953097;28;19914;-77
2022/07/31 02:20:24;;;;;;;;;;;;;;;;;;4938463;29;20428;-78
2022/07/31 02:22:53;;;;;;;;;;;;;;;;;;4952636;29;20514;-77
2022/07/31 02:25:18;;;;;;;;;;;;;;;;;;4953285;29;20577;-76
2022/07/31 02:27:43;;;;;;;;;;;;;;;;;;4953000;29;19921;-76
2022/07/31 02:30:11;;;;;;;;;;;;;;;;;;4953867;29;19918;-77
2022/07/31 02:32:36;;;;;;;;;;;;;;;;;;4952949;29;19915;-77
2022/07/31 02:35:02;;;;;;;;;;;;;;;;;;4952914;29;20005;-77
2022/07/31 02:37:27;;;;;;;;;;;;;;;;;;4954613;28;20357;-77
2022/07/31 02:39:52;;;;;;;;;;;;;;;;;;4953469;29;19919;-77
2022/07/31 02:42:18;;;;;;;;;;;;;;;;;;4953300;29;20009;-77
2022/07/31 02:44:43;;;;;;;;;;;;;;;;;;4953887;28;19915;-76
2022/07/31 02:47:10;;;;;;;;;;;;;;;;;;4936921;29;19914;-76
2022/07/31 02:49:35;;;;;;;;;;;;;;;;;;4934927;29;20298;-78
2022/07/31 02:52:03;;;;;;;;;;;;;;;;;;4934111;29;19950;-76
2022/07/31 02:54:28;;;;;;;;;;;;;;;;;;4917700;29;20356;-77
2022/07/31 02:56:53;;;;;;;;;;;;;;;;;;4934157;29;19961;-77
2022/07/31 02:59:20;;;;;;;;;;;;;;;;;;4918201;29;19944;-77
2022/07/31 03:01:56;;;;;;;;;;;;;;;;;;4918382;29;20287;-77
2022/07/31 03:04:22;;;;;;;;;;;;;;;;;;4936610;29;19926;-77
2022/07/31 03:06:47;;;;;;;;;;;;;;;;;;4917869;29;20288;-78
2022/07/31 03:09:13;;;;;;;;;;;;;;;;;;4933915;29;19915;-77
2022/07/31 03:11:38;;;;;;;;;;;;;;;;;;4937072;29;19921;-78
2022/07/31 03:14:03;;;;;;;;;;;;;;;;;;4937048;29;20444;-77
2022/07/31 03:16:29;;;;;;;;;;;;;;;;;;4953838;29;19985;-76
2022/07/31 03:18:55;;;;;;;;;;;;;;;;;;4953943;29;20364;-78
2022/07/31 03:21:21;;;;;;;;;;;;;;;;;;4957415;28;19977;-77
2022/07/31 03:23:47;;;;;;;;;;;;;;;;;;4964927;28;19915;-77
2022/07/31 03:26:18;;;;;;;;;;;;;;;;;;4966434;29;19915;-78
2022/07/31 03:28:43;;;;;;;;;;;;;;;;;;4968660;29;19987;-79
2022/07/31 03:31:09;;;;;;;;;;;;;;;;;;4967184;29;19915;-78
2022/07/31 03:33:34;;;;;;;;;;;;;;;;;;4957177;29;20336;-77
2022/07/31 03:36:00;;;;;;;;;;;;;;;;;;4959047;28;19958;-78
2022/07/31 03:38:26;;;;;;;;;;;;;;;;;;4956781;29;20020;-76
2022/07/31 03:40:51;;;;;;;;;;;;;;;;;;4939437;29;19915;-78
2022/07/31 03:43:16;;;;;;;;;;;;;;;;;;4938137;29;19915;-79
2022/07/31 03:45:42;;;;;;;;;;;;;;;;;;4938805;29;19935;-76
2022/07/31 03:48:07;;;;;;;;;;;;;;;;;;4938777;29;19915;-76
2022/07/31 03:50:33;;;;;;;;;;;;;;;;;;4940109;29;20011;-78
2022/07/31 03:52:58;;;;;;;;;;;;;;;;;;4939644;29;19915;-77
2022/07/31 03:55:23;;;;;;;;;;;;;;;;;;4946428;29;20073;-78
2022/07/31 03:57:49;;;;;;;;;;;;;;;;;;4955445;28;19926;-76
2022/07/31 04:00:14;;;;;;;;;;;;;;;;;;4955649;29;19919;-78
2022/07/31 04:02:43;;;;;;;;;;;;;;;;;;4940133;29;19922;-77
2022/07/31 04:05:31;;;;;;;;;;;;;;;;;;4955332;29;20006;-77
2022/07/31 04:07:56;;;;;;;;;;;;;;;;;;4955456;29;20346;-77
2022/07/31 04:10:21;;;;;;;;;;;;;;;;;;4955337;29;20306;-77
2022/07/31 04:12:47;;;;;;;;;;;;;;;;;;4934807;29;19977;-78
2022/07/31 04:15:12;;;;;;;;;;;;;;;;;;4955110;28;20008;-78
2022/07/31 04:17:38;;;;;;;;;;;;;;;;;;4955003;29;20009;-77
2022/07/31 04:20:04;;;;;;;;;;;;;;;;;;4955115;29;19919;-77
2022/07/31 04:22:30;;;;;;;;;;;;;;;;;;4954851;28;19922;-77
2022/07/31 04:24:55;;;;;;;;;;;;;;;;;;4954809;28;19915;-77
2022/07/31 04:27:43;;;;;;;;;;;;;;;;;;4955029;29;20281;-77
2022/07/31 04:30:09;;;;;;;;;;;;;;;;;;4953128;29;19914;-77
2022/07/31 04:32:34;;;;;;;;;;;;;;;;;;4919497;29;20017;-77
2022/07/31 04:35:02;;;;;;;;;;;;;;;;;;4935471;29;20098;-77
2022/07/31 04:37:27;;;;;;;;;;;;;;;;;;4935656;29;20386;-78
2022/07/31 04:39:53;;;;;;;;;;;;;;;;;;4936835;29;19974;-78
2022/07/31 04:42:18;;;;;;;;;;;;;;;;;;4935684;29;19918;-77
2022/07/31 04:44:44;;;;;;;;;;;;;;;;;;4935128;29;19915;-77
2022/07/31 04:47:09;;;;;;;;;;;;;;;;;;4922098;29;19915;-78
2022/07/31 04:49:40;;;;;;;;;;;;;;;;;;4936499;29;20378;-77
2022/07/31 04:52:05;;;;;;;;;;;;;;;;;;4951387;29;19915;-76
2022/07/31 04:54:31;;;;;;;;;;;;;;;;;;4934682;29;20420;-76
2022/07/31 04:56:57;;;;;;;;;;;;;;;;;;4919598;29;20437;-77
2022/07/31 04:59:23;;;;;;;;;;;;;;;;;;4935123;29;19998;-77
2022/07/31 05:01:49;;;;;;;;;;;;;;;;;;4936455;29;20371;-78
2022/07/31 05:04:17;;;;;;;;;;;;;;;;;;4942030;29;19914;-77
2022/07/31 05:06:42;;;;;;;;;;;;;;;;;;4954247;28;20378;-78
2022/07/31 05:09:08;;;;;;;;;;;;;;;;;;4938304;29;19961;-77
2022/07/31 05:11:34;;;;;;;;;;;;;;;;;;4938307;29;19944;-78
2022/07/31 05:13:59;;;;;;;;;;;;;;;;;;4953542;29;19919;-77
2022/07/31 05:16:24;;;;;;;;;;;;;;;;;;4954133;29;19961;-77
2022/07/31 05:18:53;;;;;;;;;;;;;;;;;;4955133;28;19972;-78
2022/07/31 05:21:44;;;;;;;;;;;;;;;;;;4953123;29;19977;-77
2022/07/31 05:24:28;;;;;;;;;;;;;;;;;;4935423;29;19952;-77
2022/07/31 05:27:00;;;;;;;;;;;;;;;;;;4934868;29;19998;-78
2022/07/31 05:29:26;;;;;;;;;;;;;;;;;;4934840;29;20001;-77
2022/07/31 05:31:51;;;;;;;;;;;;;;;;;;4936272;29;20014;-78
2022/07/31 05:34:17;;;;;;;;;;;;;;;;;;4934280;29;19922;-76
2022/07/31 05:36:42;;;;;;;;;;;;;;;;;;4935840;29;19922;-77
2022/07/31 05:39:08;;;;;;;;;;;;;;;;;;4934638;29;19969;-78
2022/07/31 05:41:39;;;;;;;;;;;;;;;;;;4946976;29;19915;-77
2022/07/31 05:44:07;;;;;;;;;;;;;;;;;;4952689;28;19950;-77
2022/07/31 05:46:42;;;;;;;;;;;;;;;;;;4937940;29;19918;-76
2022/07/31 05:49:08;;;;;;;;;;;;;;;;;;4953306;28;20005;-77
2022/07/31 05:51:34;;;;;;;;;;;;;;;;;;4937428;29;19915;-78
2022/07/31 05:53:59;;;;;;;;;;;;;;;;;;4937228;29;19941;-77
2022/07/31 05:56:44;;;;;;;;;;;;;;;;;;4953918;28;19925;-76
2022/07/31 05:59:09;;;;;;;;;;;;;;;;;;4919763;29;19918;-77
2022/07/31 06:01:36;;;;;;;;;;;;;;;;;;4934239;29;19911;-76
2022/07/31 06:04:03;;;;;;;;;;;;;;;;;;4933909;29;19926;-77
2022/07/31 06:06:32;;;;;;;;;;;;;;;;;;4934165;29;19945;-77
2022/07/31 06:08:58;;;;;;;;;;;;;;;;;;4933956;29;19961;-78
2022/07/31 06:11:23;;;;;;;;;;;;;;;;;;4936265;29;19915;-78
2022/07/31 06:13:48;;;;;;;;;;;;;;;;;;4953852;28;19918;-78
2022/07/31 06:16:22;;;;;;;;;;;;;;;;;;4952528;29;19916;-77
2022/07/31 06:18:47;;;;;;;;;;;;;;;;;;4954076;28;19924;-78
2022/07/31 06:21:12;;;;;;;;;;;;;;;;;;4952953;29;19915;-77
2022/07/31 06:23:38;;;;;;;;;;;;;;;;;;4952498;29;19911;-77
2022/07/31 06:26:22;;;;;;;;;;;;;;;;;;4954154;28;19915;-78
2022/07/31 06:28:47;;;;;;;;;;;;;;;;;;4936849;29;19921;-78
2022/07/31 06:31:13;;;;;;;;;;;;;;;;;;4952720;29;19922;-78
2022/07/31 06:33:38;;;;;;;;;;;;;;;;;;4951329;29;20460;-78
2022/07/31 06:36:03;;;;;;;;;;;;;;;;;;4952464;29;20338;-76
2022/07/31 06:38:36;;;;;;;;;;;;;;;;;;4952666;29;19921;-78
2022/07/31 06:44:23;;;;;;;;;;;;;;;;;;4953500;28;19922;-77
2022/07/31 06:47:07;;;;;;;;;;;;;;;;;;4953792;28;19922;-78
2022/07/31 06:49:50;;;;;;;;;;;;;;;;;;4947971;29;19915;-77
2022/07/31 06:52:16;;;;;;;;;;;;;;;;;;4936448;29;20306;-78
2022/07/31 06:54:42;;;;;;;;;;;;;;;;;;4952015;28;20342;-76
2022/07/31 06:57:08;;;;;;;;;;;;;;;;;;4956250;29;19969;-78
2022/07/31 06:59:34;;;;;;;;;;;;;;;;;;4956284;29;19914;-78
2022/07/31 07:01:59;;;;;;;;;;;;;;;;;;4956770;29;19968;-77
2022/07/31 07:04:25;;;;;;;;;;;;;;;;;;4956103;28;20004;-78
2022/07/31 07:06:50;;;;;;;;;;;;;;;;;;4951850;28;20306;-77
2022/07/31 07:09:15;;;;;;;;;;;;;;;;;;4925037;29;20325;-78
2022/07/31 07:11:41;;;;;;;;;;;;;;;;;;4953351;29;20506;-78
2022/07/31 07:14:06;;;;;;;;;;;;;;;;;;4952436;29;19926;-76
2022/07/31 07:16:32;;;;;;;;;;;;;;;;;;4938483;29;19938;-76
2022/07/31 07:18:57;;;;;;;;;;;;;;;;;;4953062;29;19940;-77
2022/07/31 07:21:22;;;;;;;;;;;;;;;;;;4956946;28;19930;-76
2022/07/31 07:23:48;;;;;;;;;;;;;;;;;;4921151;29;20293;-78
2022/07/31 07:26:36;;;;;;;;;;;;;;;;;;4937959;29;19915;-77
2022/07/31 07:29:02;;;;;;;;;;;;;;;;;;4936876;29;20383;-77
2022/07/31 07:31:28;;;;;;;;;;;;;;;;;;4936800;29;19986;-78
2022/07/31 07:33:55;;;;;;;;;;;;;;;;;;4936390;29;20413;-75
2022/07/31 07:36:22;;;;;;;;;;;;;;;;;;4937829;29;19915;-77
2022/07/31 07:38:47;;;;;;;;;;;;;;;;;;4938307;29;19919;-76
2022/07/31 07:41:12;;;;;;;;;;;;;;;;;;4954974;29;20358;-78
2022/07/31 07:43:38;;;;;;;;;;;;;;;;;;4955860;28;19914;-77
2022/07/31 07:46:03;;;;;;;;;;;;;;;;;;4956389;29;19914;-78
2022/07/31 07:48:29;;;;;;;;;;;;;;;;;;4956090;28;19918;-79
2022/07/31 07:51:13;;;;;;;;;;;;;;;;;;4956393;29;19954;-77
2022/07/31 07:54:07;;;;;;;;;;;;;;;;;;4954553;29;19914;-77
2022/07/31 07:56:53;;;;;;;;;;;;;;;;;;4956572;29;20398;-77
2022/07/31 07:59:37;;;;;;;;;;;;;;;;;;4956795;28;19965;-76
2022/07/31 08:02:43;;;;;;;;;;;;;;;;;;4935108;29;19919;-77
2022/07/31 08:05:08;;;;;;;;;;;;;;;;;;4919116;29;20343;-77
2022/07/31 08:07:34;;;;;;;;;;;;;;;;;;4918558;29;19931;-78
2022/07/31 08:09:59;;;;;;;;;;;;;;;;;;4955766;29;20371;-77
2022/07/31 08:12:24;;;;;;;;;;;;;;;;;;4955910;28;19919;-78
2022/07/31 08:15:02;;;;;;;;;;;;;;;;;;4955422;29;19941;-78
2022/07/31 08:17:46;;;;;;;;;;;;;;;;;;4955455;28;19915;-77
2022/07/31 08:20:12;;;;;;;;;;;;;;;;;;4955084;29;19986;-77
2022/07/31 08:22:37;;;;;;;;;;;;;;;;;;4923734;29;20021;-77
2022/07/31 08:25:03;;;;;;;;;;;;;;;;;;4955583;29;19915;-77
2022/07/31 08:27:29;;;;;;;;;;;;;;;;;;4955138;29;19914;-77
2022/07/31 08:29:55;;;;;;;;;;;;;;;;;;4950537;29;20451;-79
2022/07/31 08:32:20;;;;;;;;;;;;;;;;;;4956239;29;19961;-78
2022/07/31 08:35:12;;;;;;;;;;;;;;;;;;4959261;29;19915;-79
2022/07/31 08:37:38;;;;;;;;;;;;;;;;;;4958348;29;19915;-79
2022/07/31 08:40:03;;;;;;;;;;;;;;;;;;4959105;28;19914;-78
2022/07/31 08:42:31;;;;;;;;;;;;;;;;;;4926988;29;19910;-77
2022/07/31 08:44:56;;;;;;;;;;;;;;;;;;4958341;28;19921;-77
2022/07/31 08:47:26;;;;;;;;;;;;;;;;;;4954640;29;19918;-77
2022/07/31 08:49:51;;;;;;;;;;;;;;;;;;4943962;29;19922;-76
2022/07/31 08:52:17;;;;;;;;;;;;;;;;;;4958827;29;19915;-77
2022/07/31 08:55:04;;;;;;;;;;;;;;;;;;4954059;29;19922;-77
2022/07/31 08:57:30;;;;;;;;;;;;;;;;;;4938130;29;20386;-77
2022/07/31 08:59:56;;;;;;;;;;;;;;;;;;4955220;29;20453;-79
2022/07/31 09:02:21;;;;;;;;;;;;;;;;;;4953941;28;19914;-77
2022/07/31 09:05:05;;;;;;;;;;;;;;;;;;4949270;29;20448;-78
2022/07/31 09:07:31;;;;;;;;;;;;;;;;;;4950832;28;19919;-79
2022/07/31 09:09:56;;;;;;;;;;;;;;;;;;4925266;29;20400;-79
2022/07/31 09:12:21;;;;;;;;;;;;;;;;;;4944493;29;20363;-78
2022/07/31 09:15:06;;;;;;;;;;;;;;;;;;4950608;29;20001;-80
2022/07/31 09:17:32;;;;;;;;;;;;;;;;;;4934327;29;19957;-79
2022/07/31 09:19:57;;;;;;;;;;;;;;;;;;4935147;29;19958;-78
2022/07/31 09:22:27;;;;;;;;;;;;;;;;;;4934747;29;19921;-78
2022/07/31 09:24:55;;;;;;;;;;;;;;;;;;4934556;29;19919;-78
2022/07/31 09:27:20;;;;;;;;;;;;;;;;;;4934698;29;19915;-78
2022/07/31 09:29:47;;;;;;;;;;;;;;;;;;4919286;29;20344;-78
2022/07/31 09:32:24;;;;;;;;;;;;;;;;;;4934571;29;19915;-78
2022/07/31 09:35:10;;;;;;;;;;;;;;;;;;4935644;29;19922;-80
2022/07/31 09:37:36;;;;;;;;;;;;;;;;;;4952557;29;19914;-77
2022/07/31 09:40:20;;;;;;;;;;;;;;;;;;4953486;28;19911;-79
2022/07/31 09:43:18;;;;;;;;;;;;;;;;;;4954097;29;19915;-78
2022/07/31 09:45:44;;;;;;;;;;;;;;;;;;4953653;29;19914;-79
2022/07/31 09:48:13;;;;;;;;;;;;;;;;;;4953378;29;20017;-79
2022/07/31 09:50:39;;;;;;;;;;;;;;;;;;4937554;29;19985;-80
2022/07/31 09:53:05;;;;;;;;;;;;;;;;;;4952755;29;20385;-78
2022/07/31 09:55:31;;;;;;;;;;;;;;;;;;4932825;29;20361;-79
2022/07/31 09:57:57;;;;;;;;;;;;;;;;;;4933974;29;20286;-80
2022/07/31 10:00:25;;;;;;;;;;;;;;;;;;4934044;29;20353;-78
2022/07/31 10:02:51;;;;;;;;;;;;;;;;;;4949690;29;19958;-78
2022/07/31 10:05:16;;;;;;;;;;;;;;;;;;4949894;29;19915;-78
2022/07/31 10:07:42;;;;;;;;;;;;;;;;;;4949974;29;19911;-77
2022/07/31 10:10:11;;;;;;;;;;;;;;;;;;4950047;29;19962;-78
2022/07/31 10:12:56;;;;;;;;;;;;;;;;;;4946692;29;19915;-79
2022/07/31 10:15:24;;;;;;;;;;;;;;;;;;4954043;28;19918;-78
2022/07/31 10:18:10;;;;;;;;;;;;;;;;;;4954005;29;19918;-78
2022/07/31 10:21:04;;;;;;;;;;;;;;;;;;4952689;29;19919;-80
2022/07/31 10:23:44;;;;;;;;;;;;;;;;;;4952630;29;19922;-79
2022/07/31 10:26:10;;;;;;;;;;;;;;;;;;4952854;29;19921;-78
2022/07/31 10:28:36;;;;;;;;;;;;;;;;;;4952260;28;22847;-78
2022/07/31 10:31:02;;;;;;;;;;;;;;;;;;4952556;29;19969;-77
2022/07/31 10:33:27;;;;;;;;;;;;;;;;;;4952333;29;20128;-78
2022/07/31 10:36:11;;;;;;;;;;;;;;;;;;4954159;28;19937;-79
2022/07/31 10:38:57;;;;;;;;;;;;;;;;;;4958339;29;20000;-78
2022/07/31 10:41:38;;;;;;;;;;;;;;;;;;4955456;29;19961;-79
2022/07/31 10:44:03;;;;;;;;;;;;;;;;;;4936633;29;20346;-78
2022/07/31 10:46:43;;;;;;;;;;;;;;;;;;4948100;29;19915;-79
2022/07/31 10:49:30;;;;;;;;;;;;;;;;;;4952791;29;19946;-78
2022/07/31 10:52:00;;;;;;;;;;;;;;;;;;4953709;29;19915;-77
2022/07/31 10:54:44;;;;;;;;;;;;;;;;;;4953229;28;19933;-78
2022/07/31 10:57:28;;;;;;;;;;;;;;;;;;4953871;28;20381;-79
2022/07/31 11:00:22;;;;;;;;;;;;;;;;;;4952581;29;20086;-79
2022/07/31 11:03:05;;;;;;;;;;;;;;;;;;4953423;28;19982;-79
2022/07/31 11:05:51;;;;;;;;;;;;;;;;;;4952830;29;19993;-78
2022/07/31 11:08:35;;;;;;;;;;;;;;;;;;4952881;29;19957;-78
2022/07/31 11:11:08;;;;;;;;;;;;;;;;;;4936887;29;20242;-79
2022/07/31 11:14:03;;;;;;;;;;;;;;;;;;4932138;29;19919;-78
2022/07/31 11:16:54;;;;;;;;;;;;;;;;;;4934036;29;20425;-79
2022/07/31 11:19:38;;;;;;;;;;;;;;;;;;4933661;29;19919;-78
2022/07/31 11:22:04;;;;;;;;;;;;;;;;;;4935503;29;19982;-79
2022/07/31 11:24:29;;;;;;;;;;;;;;;;;;4953960;29;20013;-79
2022/07/31 11:26:54;;;;;;;;;;;;;;;;;;4953647;29;19966;-78
2022/07/31 11:29:20;;;;;;;;;;;;;;;;;;4952729;29;19914;-78
2022/07/31 11:31:45;;;;;;;;;;;;;;;;;;4953715;29;19954;-80
2022/07/31 11:34:10;;;;;;;;;;;;;;;;;;4951889;29;19917;-80
2022/07/31 11:36:36;;;;;;;;;;;;;;;;;;4952294;28;19990;-78
2022/07/31 11:39:01;;;;;;;;;;;;;;;;;;4952572;29;19925;-80
2022/07/31 11:41:27;;;;;;;;;;;;;;;;;;4953501;28;20290;-78
2022/07/31 11:43:53;;;;;;;;;;;;;;;;;;4956644;28;20303;-78
2022/07/31 11:46:18;;;;;;;;;;;;;;;;;;4939849;29;19911;-78
2022/07/31 11:48:44;;;;;;;;;;;;;;;;;;4955642;29;19933;-79
2022/07/31 11:51:09;;;;;;;;;;;;;;;;;;4956612;28;19915;-78
2022/07/31 11:53:34;;;;;;;;;;;;;;;;;;4955135;29;20385;-79
2022/07/31 11:56:00;;;;;;;;;;;;;;;;;;4956151;28;19962;-77
2022/07/31 11:58:25;;;;;;;;;;;;;;;;;;4920326;29;19918;-77
2022/07/31 12:00:51;;;;;;;;;;;;;;;;;;4937553;29;20323;-79
2022/07/31 12:03:16;;;;;;;;;;;;;;;;;;4938183;29;19965;-78
2022/07/31 12:05:42;;;;;;;;;;;;;;;;;;4942720;29;19915;-77
2022/07/31 12:08:08;;;;;;;;;;;;;;;;;;4945387;29;19974;-78
2022/07/31 12:10:33;;;;;;;;;;;;;;;;;;4945610;29;19915;-78
2022/07/31 12:12:58;;;;;;;;;;;;;;;;;;4960115;29;19918;-79
2022/07/31 12:15:24;;;;;;;;;;;;;;;;;;4965653;28;19919;-78
2022/07/31 12:17:49;;;;;;;;;;;;;;;;;;4968188;29;19926;-77
2022/07/31 12:20:14;;;;;;;;;;;;;;;;;;4968362;29;19915;-78
2022/07/31 12:22:40;;;;;;;;;;;;;;;;;;4963563;29;19914;-78
2022/07/31 12:25:08;;;;;;;;;;;;;;;;;;4965894;29;19963;-78
2022/07/31 12:27:33;;;;;;;;;;;;;;;;;;4964920;29;19925;-78
2022/07/31 12:29:59;;;;;;;;;;;;;;;;;;4961094;29;19915;-79
2022/07/31 12:32:24;;;;;;;;;;;;;;;;;;4959085;29;19933;-78
2022/07/31 12:34:50;;;;;;;;;;;;;;;;;;4954352;29;19994;-78
2022/07/31 12:37:15;;;;;;;;;;;;;;;;;;4954677;29;19915;-78
2022/07/31 12:39:40;;;;;;;;;;;;;;;;;;4955403;28;19926;-79
2022/07/31 12:42:06;;;;;;;;;;;;;;;;;;4954432;29;20005;-78
2022/07/31 12:44:31;;;;;;;;;;;;;;;;;;4955421;28;19950;-77
2022/07/31 12:46:57;;;;;;;;;;;;;;;;;;4953725;29;20359;-77
2022/07/31 12:49:22;;;;;;;;;;;;;;;;;;4954370;29;19915;-77
2022/07/31 12:51:47;;;;;;;;;;;;;;;;;;4955485;28;19973;-77
2022/07/31 12:54:13;;;;;;;;;;;;;;;;;;4953761;29;20306;-78
2022/07/31 12:56:38;;;;;;;;;;;;;;;;;;4954075;29;19915;-77
2022/07/31 12:59:04;;;;;;;;;;;;;;;;;;4937941;29;20405;-76
2022/07/31 13:01:29;;;;;;;;;;;;;;;;;;4954406;29;19997;-79
2022/07/31 13:03:55;;;;;;;;;;;;;;;;;;4954166;28;20370;-79
2022/07/31 13:06:21;;;;;;;;;;;;;;;;;;4937842;29;19959;-77
2022/07/31 13:08:46;;;;;;;;;;;;;;;;;;4953934;29;19921;-77
2022/07/31 13:11:12;;;;;;;;;;;;;;;;;;4953878;29;20378;-78
2022/07/31 13:13:37;;;;;;;;;;;;;;;;;;4953386;29;19985;-78
2022/07/31 13:16:02;;;;;;;;;;;;;;;;;;4955221;28;19914;-78
2022/07/31 13:18:28;;;;;;;;;;;;;;;;;;4955064;28;19918;-78
2022/07/31 13:20:54;;;;;;;;;;;;;;;;;;4954171;28;19914;-77
2022/07/31 13:23:20;;;;;;;;;;;;;;;;;;4953475;29;19915;-78
2022/07/31 13:25:45;;;;;;;;;;;;;;;;;;4954568;28;19924;-78
2022/07/31 13:28:11;;;;;;;;;;;;;;;;;;4954951;29;19926;-77
2022/07/31 13:30:36;;;;;;;;;;;;;;;;;;4954715;29;19946;-78
2022/07/31 13:33:01;;;;;;;;;;;;;;;;;;4952681;29;19914;-78
2022/07/31 13:35:27;;;;;;;;;;;;;;;;;;4954618;29;19914;-76
2022/07/31 13:37:52;;;;;;;;;;;;;;;;;;4953158;29;19965;-77
2022/07/31 13:40:18;;;;;;;;;;;;;;;;;;4956689;29;19980;-79
2022/07/31 13:42:43;;;;;;;;;;;;;;;;;;4956184;29;19997;-77
2022/07/31 13:45:09;;;;;;;;;;;;;;;;;;4956147;29;19930;-77
2022/07/31 13:47:34;;;;;;;;;;;;;;;;;;4954117;29;19915;-76
2022/07/31 13:49:59;;;;;;;;;;;;;;;;;;4954733;29;19915;-78
2022/07/31 13:52:25;;;;;;;;;;;;;;;;;;4937901;29;19994;-77
2022/07/31 13:54:50;;;;;;;;;;;;;;;;;;4945399;29;20319;-77
2022/07/31 13:57:16;;;;;;;;;;;;;;;;;;4935006;29;19915;-77
2022/07/31 13:59:41;;;;;;;;;;;;;;;;;;4917791;29;20318;-76
2022/07/31 14:02:06;;;;;;;;;;;;;;;;;;4933973;29;19968;-77
2022/07/31 14:04:32;;;;;;;;;;;;;;;;;;4933093;29;19918;-77
2022/07/31 14:06:57;;;;;;;;;;;;;;;;;;4934960;29;19922;-76
2022/07/31 14:09:23;;;;;;;;;;;;;;;;;;4933738;29;20231;-78
2022/07/31 14:11:48;;;;;;;;;;;;;;;;;;4922427;29;19915;-78
2022/07/31 14:14:13;;;;;;;;;;;;;;;;;;4933348;29;19964;-78
2022/07/31 14:16:40;;;;;;;;;;;;;;;;;;4949847;29;19915;-77
2022/07/31 14:19:05;;;;;;;;;;;;;;;;;;4935021;29;19934;-77
2022/07/31 14:21:31;;;;;;;;;;;;;;;;;;4935305;29;19915;-78
2022/07/31 14:23:56;;;;;;;;;;;;;;;;;;4934577;29;19938;-78
2022/07/31 14:26:22;;;;;;;;;;;;;;;;;;4934882;29;20310;-77
2022/07/31 14:28:48;;;;;;;;;;;;;;;;;;4937387;29;19961;-77
2022/07/31 14:31:13;;;;;;;;;;;;;;;;;;4953336;28;20642;-77
2022/07/31 14:33:39;;;;;;;;;;;;;;;;;;4942736;28;20004;-78
2022/07/31 14:36:05;;;;;;;;;;;;;;;;;;4949218;29;19915;-77
2022/07/31 14:38:30;;;;;;;;;;;;;;;;;;4951308;29;20386;-77
2022/07/31 14:40:56;;;;;;;;;;;;;;;;;;4953543;28;19961;-77
2022/07/31 14:43:21;;;;;;;;;;;;;;;;;;4945741;29;20375;-77
2022/07/31 14:45:46;;;;;;;;;;;;;;;;;;4952503;28;20434;-77
2022/07/31 14:48:12;;;;;;;;;;;;;;;;;;4951341;28;19915;-77
2022/07/31 14:50:37;;;;;;;;;;;;;;;;;;4949421;29;20330;-76
2022/07/31 14:53:03;;;;;;;;;;;;;;;;;;4952193;29;19919;-78
2022/07/31 14:55:28;;;;;;;;;;;;;;;;;;4943534;29;19918;-78
2022/07/31 14:57:53;;;;;;;;;;;;;;;;;;4946956;29;20272;-77
2022/07/31 15:00:19;;;;;;;;;;;;;;;;;;4948830;28;19922;-77
2022/07/31 15:02:45;;;;;;;;;;;;;;;;;;4936918;28;19930;-77
2022/07/31 15:05:10;;;;;;;;;;;;;;;;;;4947911;29;20345;-76
2022/07/31 15:07:36;;;;;;;;;;;;;;;;;;4943634;28;19990;-76
2022/07/31 15:10:01;;;;;;;;;;;;;;;;;;4946196;29;19922;-76
2022/07/31 15:12:27;;;;;;;;;;;;;;;;;;4944609;29;19914;-77
2022/07/31 15:14:52;;;;;;;;;;;;;;;;;;4964751;23;20373;-77
2022/07/31 15:17:17;;;;;;;;;;;;;;;;;;4948350;29;19922;-76
2022/07/31 15:19:43;;;;;;;;;;;;;;;;;;4948365;29;19918;-76
2022/07/31 15:22:08;;;;;;;;;;;;;;;;;;4943070;29;20291;-77
2022/07/31 15:24:34;;;;;;;;;;;;;;;;;;4953517;29;20290;-77
2022/07/31 15:26:59;;;;;;;;;;;;;;;;;;4941296;29;19925;-78
2022/07/31 15:29:24;;;;;;;;;;;;;;;;;;4947539;29;19970;-78
2022/07/31 15:31:50;;;;;;;;;;;;;;;;;;4948515;29;20002;-77
2022/07/31 15:34:15;;;;;;;;;;;;;;;;;;4940601;29;19914;-78
2022/07/31 15:36:40;;;;;;;;;;;;;;;;;;4937217;29;19921;-77
2022/07/31 15:39:06;;;;;;;;;;;;;;;;;;4943735;29;19975;-77
2022/07/31 15:41:31;;;;;;;;;;;;;;;;;;4956852;29;19969;-76
2022/07/31 15:43:58;;;;;;;;;;;;;;;;;;4956515;29;20275;-76
2022/07/31 15:46:23;;;;;;;;;;;;;;;;;;4946997;29;19930;-77
2022/07/31 15:48:50;;;;;;;;;;;;;;;;;;4941308;29;19915;-75
2022/07/31 15:51:16;;;;;;;;;;;;;;;;;;4945360;28;20406;-77
2022/07/31 15:53:41;;;;;;;;;;;;;;;;;;4941475;29;19927;-76
2022/07/31 15:56:06;;;;;;;;;;;;;;;;;;4939434;29;19921;-75
2022/07/31 15:58:32;;;;;;;;;;;;;;;;;;4952723;29;19939;-76
2022/07/31 16:00:57;;;;;;;;;;;;;;;;;;4942908;29;19961;-76
2022/07/31 16:03:23;;;;;;;;;;;;;;;;;;4944439;29;19915;-77
2022/07/31 16:05:48;;;;;;;;;;;;;;;;;;4945027;29;19914;-77
2022/07/31 16:08:13;;;;;;;;;;;;;;;;;;4939304;29;19958;-76
2022/07/31 16:10:39;;;;;;;;;;;;;;;;;;4951623;29;19914;-77
2022/07/31 16:13:04;;;;;;;;;;;;;;;;;;4944757;29;20338;-77
2022/07/31 16:15:30;;;;;;;;;;;;;;;;;;4946664;29;19985;-75
2022/07/31 16:17:56;;;;;;;;;;;;;;;;;;4940059;28;20015;-78
2022/07/31 16:20:24;;;;;;;;;;;;;;;;;;4952389;29;20387;-77
2022/07/31 16:22:53;;;;;;;;;;;;;;;;;;4938192;29;20537;-76
2022/07/31 16:25:18;;;;;;;;;;;;;;;;;;4948779;29;19919;-77
2022/07/31 16:27:43;;;;;;;;;;;;;;;;;;4957157;28;19921;-84
2022/07/31 16:30:09;;;;;;;;;;;;;;;;;;4933513;29;19990;-84
2022/07/31 16:32:37;;;;;;;;;;;;;;;;;;4944875;29;19989;-83
2022/07/31 16:35:04;;;;;;;;;;;;;;;;;;4965408;28;19947;-82
2022/07/31 16:37:30;;;;;;;;;;;;;;;;;;4949826;29;19914;-83
2022/07/31 16:39:58;;;;;;;;;;;;;;;;;;4935317;29;19942;-83
2022/07/31 16:42:23;;;;;;;;;;;;;;;;;;4938272;29;19915;-84
2022/07/31 16:44:52;;;;;;;;;;;;;;;;;;4969892;29;19933;-83
2022/07/31 16:47:18;;;;;;;;;;;;;;;;;;4951374;29;19914;-84
2022/07/31 16:49:43;;;;;;;;;;;;;;;;;;4962297;29;19914;-84
2022/07/31 16:52:09;;;;;;;;;;;;;;;;;;4944059;29;19924;-83
2022/07/31 16:54:34;;;;;;;;;;;;;;;;;;4954487;29;19982;-77